Time;durP1;ratioP1;P1;durP2;ratioP2;P2;SDS_P1;SDS_P2;PMS_P1;PMS_P2;Temp;Humidity;BMP_temperature;BMP_pressure;BME280_temperature;BME280_humidity;BME280_pressure;Samples;Min_cycle;Max_cycle;Signal;HPM_P1;HPM_P2
2023/01/27 00:02:22;;;;;;;24.53;14.07;;;-1.00;99.90;;;;;;5089767;28;20201;-30
2023/01/27 00:04:47;;;;;;;26.13;14.70;;;-1.10;99.90;;;;;;5090488;28;20212;-31
2023/01/27 00:07:13;;;;;;;26.97;14.97;;;-1.10;99.90;;;;;;5079000;28;20169;-32
2023/01/27 00:09:40;;;;;;;26.37;15.30;;;-1.10;99.90;;;;;;5070572;28;20170;-30
2023/01/27 00:15:00;;;;;;;25.40;15.07;;;-1.10;99.90;;;;;;5074070;28;20651;-30
2023/01/27 00:17:26;;;;;;;25.40;15.33;;;-1.10;99.90;;;;;;5084610;28;20205;-32
2023/01/27 00:19:52;;;;;;;27.53;16.00;;;-1.10;99.90;;;;;;5094093;28;20272;-30
2023/01/27 00:25:02;;;;;;;26.53;14.37;;;-1.10;99.90;;;;;;5073262;28;20294;-33
2023/01/27 00:27:28;;;;;;;24.63;14.70;;;-1.10;99.90;;;;;;5097069;28;20215;-30
2023/01/27 00:29:54;;;;;;;31.37;16.17;;;-1.20;99.90;;;;;;5105701;28;20172;-31
2023/01/27 00:35:04;;;;;;;30.67;15.47;;;-1.20;99.90;;;;;;5092641;28;20186;-30
2023/01/27 00:37:30;;;;;;;25.53;15.20;;;-1.20;99.90;;;;;;5093542;28;20191;-31
2023/01/27 00:39:56;;;;;;;27.17;14.53;;;-1.20;99.90;;;;;;5093579;28;20177;-31
2023/01/27 00:42:22;;;;;;;26.43;15.67;;;-1.20;99.90;;;;;;5074411;28;20209;-31
2023/01/27 00:47:40;;;;;;;27.73;15.00;;;-1.20;99.90;;;;;;5073122;28;20182;-31
2023/01/27 00:50:07;;;;;;;28.03;15.23;;;-1.20;99.90;;;;;;5072253;28;20174;-31
2023/01/27 00:52:33;;;;;;;28.13;15.70;;;-1.20;99.90;;;;;;5072293;28;20193;-30
2023/01/27 00:55:00;;;;;;;30.17;15.87;;;-1.20;99.90;;;;;;5058993;28;20243;-30
2023/01/27 00:57:26;;;;;;;29.63;16.70;;;-1.20;99.90;;;;;;5091059;28;20192;-30
2023/01/27 00:59:51;;;;;;;29.23;15.87;;;-1.20;99.90;;;;;;5092228;28;20201;-30
2023/01/27 01:02:17;;;;;;;33.30;16.57;;;-1.20;99.90;;;;;;5091508;28;20207;-30
2023/01/27 01:04:43;;;;;;;35.03;16.27;;;-1.20;99.90;;;;;;5080794;28;20228;-31
2023/01/27 01:07:09;;;;;;;32.47;17.30;;;-1.20;99.90;;;;;;5072027;28;20260;-29
2023/01/27 01:09:35;;;;;;;30.10;17.03;;;-1.20;99.90;;;;;;5081651;28;20169;-30
2023/01/27 01:12:02;;;;;;;31.83;16.87;;;-1.30;99.90;;;;;;5091863;28;20184;-31
2023/01/27 01:14:29;;;;;;;30.77;16.83;;;-1.30;99.90;;;;;;5084923;28;20196;-31
2023/01/27 01:16:55;;;;;;;31.90;17.50;;;-1.30;99.90;;;;;;5071493;28;20214;-31
2023/01/27 01:19:21;;;;;;;31.97;16.83;;;-1.30;99.90;;;;;;5070557;28;20189;-31
2023/01/27 01:21:47;;;;;;;31.83;16.43;;;-1.20;99.90;;;;;;5071322;28;20205;-30
2023/01/27 01:24:13;;;;;;;35.57;19.07;;;-1.20;99.90;;;;;;5076689;28;20264;-30
2023/01/27 01:26:38;;;;;;;32.07;16.83;;;-1.20;99.90;;;;;;5091946;28;20190;-31
2023/01/27 01:29:05;;;;;;;37.30;18.90;;;-1.20;99.90;;;;;;5090761;28;20268;-31
2023/01/27 01:31:30;;;;;;;38.20;18.17;;;-1.20;99.90;;;;;;5074746;28;20224;-31
2023/01/27 01:33:56;;;;;;;33.10;18.20;;;-1.20;99.90;;;;;;5073890;28;20280;-33
2023/01/27 01:36:22;;;;;;;36.03;18.57;;;-1.20;99.90;;;;;;5074171;28;20248;-30
2023/01/27 01:38:52;;;;;;;34.10;17.77;;;-1.20;99.90;;;;;;5072406;28;20654;-31
2023/01/27 01:41:19;;;;;;;40.07;20.43;;;-1.20;99.90;;;;;;5071313;28;20655;-31
2023/01/27 01:43:45;;;;;;;33.03;19.50;;;-1.20;99.90;;;;;;5085984;28;20204;-30
2023/01/27 01:46:12;;;;;;;40.63;21.13;;;-1.20;99.90;;;;;;5074142;28;20660;-31
2023/01/27 01:48:41;;;;;;;36.83;20.67;;;-1.20;99.90;;;;;;5077736;28;20211;-31
2023/01/27 01:51:15;;;;;;;36.10;18.67;;;-1.20;99.90;;;;;;5071736;28;20277;-31
2023/01/27 01:54:12;;;;;;;36.27;19.17;;;-1.30;99.90;;;;;;5070938;28;20592;-31
2023/01/27 01:56:46;;;;;;;38.57;19.90;;;-1.30;99.90;;;;;;5082306;28;20668;-31
2023/01/27 01:59:21;;;;;;;37.33;19.70;;;-1.30;99.90;;;;;;5074073;28;20188;-31
2023/01/27 02:01:47;;;;;;;41.27;19.67;;;-1.20;99.90;;;;;;5069881;28;20232;-31
2023/01/27 02:04:18;;;;;;;32.50;18.00;;;-1.20;99.90;;;;;;5053970;28;20250;-30
2023/01/27 02:06:55;;;;;;;38.43;19.83;;;-1.30;99.90;;;;;;5075349;28;20178;-30
2023/01/27 02:09:22;;;;;;;39.70;19.90;;;-1.30;99.90;;;;;;5085057;28;20225;-30
2023/01/27 02:11:48;;;;;;;35.50;18.13;;;-1.30;99.90;;;;;;5090579;28;20217;-32
2023/01/27 02:14:16;;;;;;;37.80;19.10;;;-1.30;99.90;;;;;;5060267;28;20185;-31
2023/01/27 02:16:42;;;;;;;37.77;19.67;;;-1.40;99.90;;;;;;5071593;28;20173;-31
2023/01/27 02:19:20;;;;;;;39.37;20.53;;;-1.30;99.90;;;;;;5065745;28;20181;-31
2023/01/27 02:21:49;;;;;;;40.97;19.70;;;-1.30;99.90;;;;;;5090829;28;20227;-31
2023/01/27 02:24:15;;;;;;;36.80;18.73;;;-1.30;99.90;;;;;;5079520;28;20190;-32
2023/01/27 02:26:45;;;;;;;43.60;20.00;;;-1.30;99.90;;;;;;5088145;28;20231;-31
2023/01/27 02:29:14;;;;;;;42.40;20.90;;;-1.30;99.90;;;;;;5072955;28;20178;-31
2023/01/27 02:31:40;;;;;;;39.17;20.00;;;-1.30;99.90;;;;;;5090531;28;20190;-31
2023/01/27 02:34:23;;;;;;;37.70;19.43;;;-1.30;99.90;;;;;;5081600;28;20204;-31
2023/01/27 02:36:54;;;;;;;34.63;19.20;;;-1.20;99.90;;;;;;5070228;28;20242;-31
2023/01/27 02:39:25;;;;;;;40.50;20.20;;;-1.20;99.90;;;;;;5063631;28;20264;-31
2023/01/27 02:41:53;;;;;;;41.40;19.93;;;-1.20;99.90;;;;;;5073563;28;20228;-31
2023/01/27 02:44:20;;;;;;;38.63;19.90;;;-1.20;99.90;;;;;;5079747;28;20202;-31
2023/01/27 02:46:46;;;;;;;37.93;19.20;;;-1.20;99.90;;;;;;5069967;28;20177;-30
2023/01/27 02:49:12;;;;;;;37.77;19.30;;;-1.20;99.90;;;;;;5061025;28;20189;-31
2023/01/27 02:51:39;;;;;;;38.43;19.77;;;-1.20;99.90;;;;;;5073363;28;20291;-31
2023/01/27 02:54:05;;;;;;;36.30;19.00;;;-1.20;99.90;;;;;;5083441;28;20187;-31
2023/01/27 02:56:32;;;;;;;38.30;20.77;;;-1.10;99.90;;;;;;5069242;28;20715;-31
2023/01/27 02:58:57;;;;;;;37.37;21.13;;;-1.00;99.90;;;;;;5068081;28;20244;-31
2023/01/27 03:01:31;;;;;;;37.70;18.07;;;-1.00;99.90;;;;;;5054265;28;20247;-31
2023/01/27 03:03:58;;;;;;;34.93;18.70;;;-1.00;99.90;;;;;;5073397;28;20206;-31
2023/01/27 03:06:24;;;;;;;41.20;20.17;;;-0.90;99.90;;;;;;5083575;28;20173;-32
2023/01/27 03:08:50;;;;;;;37.13;19.87;;;-0.90;99.90;;;;;;5063632;28;20184;-31
2023/01/27 03:12:18;;;;;;;36.47;17.57;;;-1.00;99.90;;;;;;5073112;28;20254;-32
2023/01/27 03:14:03;;;;;;;32.40;17.23;;;-1.00;99.90;;;;;;5078785;28;20178;-31
2023/01/27 03:19:15;;;;;;;28.70;14.83;;;-1.00;99.90;;;;;;5082125;28;20206;-32
2023/01/27 03:21:41;;;;;;;31.03;16.20;;;-0.90;99.90;;;;;;5089508;28;20205;-31
2023/01/27 03:24:06;;;;;;;34.30;17.43;;;-0.90;99.90;;;;;;5078380;28;20202;-31
2023/01/27 03:26:34;;;;;;;31.20;16.67;;;-0.80;99.90;;;;;;5086563;28;20183;-31
2023/01/27 03:31:49;;;;;;;24.37;14.60;;;-0.80;99.90;;;;;;5089785;28;20265;-31
2023/01/27 03:34:15;;;;;;;30.97;16.23;;;-0.70;99.90;;;;;;5078335;28;20272;-31
2023/01/27 03:47:44;;;;;;;26.37;15.20;;;-0.90;99.90;;;;;;5094902;28;20186;-32
2023/01/27 03:50:12;;;;;;;26.13;13.87;;;-1.00;99.90;;;;;;5063476;28;20181;-31
2023/01/27 03:52:38;;;;;;;27.10;15.03;;;-1.00;99.90;;;;;;5093270;28;20198;-31
2023/01/27 03:55:05;;;;;;;24.73;13.47;;;-1.00;99.90;;;;;;5087892;28;20177;-30
2023/01/27 03:57:31;;;;;;;26.30;14.17;;;-1.00;99.90;;;;;;5094560;28;20189;-32
2023/01/27 03:59:57;;;;;;;28.60;14.70;;;-1.00;99.90;;;;;;5093846;28;20182;-31
2023/01/27 04:07:52;;;;;;;24.77;13.43;;;-1.00;99.90;;;;;;5072788;28;20177;-32
2023/01/27 04:10:18;;;;;;;24.70;13.80;;;-0.90;99.90;;;;;;5087110;28;20251;-31
2023/01/27 04:12:46;;;;;;;22.80;13.27;;;-0.90;99.90;;;;;;5092981;28;20208;-31
2023/01/27 04:15:12;;;;;;;23.53;12.63;;;-0.90;99.90;;;;;;5080975;28;20227;-31
2023/01/27 04:17:39;;;;;;;23.93;13.73;;;-0.90;99.90;;;;;;5058262;28;20195;-30
2023/01/27 04:20:06;;;;;;;27.30;14.00;;;-0.90;99.90;;;;;;5079597;28;20270;-32
2023/01/27 04:22:32;;;;;;;26.33;14.63;;;-0.90;99.90;;;;;;5072892;28;20251;-31
2023/01/27 04:24:58;;;;;;;25.07;14.93;;;-0.90;99.90;;;;;;5081788;28;20208;-33
2023/01/27 04:27:24;;;;;;;27.10;15.37;;;-0.90;99.90;;;;;;5093415;28;20202;-32
2023/01/27 04:29:50;;;;;;;27.23;14.80;;;-0.90;99.90;;;;;;5084589;28;20174;-33
2023/01/27 04:32:15;;;;;;;31.23;15.77;;;-1.00;99.90;;;;;;5073978;28;20204;-33
2023/01/27 04:34:41;;;;;;;29.97;15.80;;;-1.00;99.90;;;;;;5074965;28;20297;-32
2023/01/27 04:37:08;;;;;;;33.43;16.40;;;-1.00;99.90;;;;;;5091716;28;20255;-33
2023/01/27 04:39:34;;;;;;;30.73;16.53;;;-1.00;99.90;;;;;;5072760;28;20302;-32
2023/01/27 04:42:01;;;;;;;26.23;14.93;;;-0.90;99.90;;;;;;5092600;28;20245;-32
2023/01/27 04:44:29;;;;;;;22.03;12.60;;;-1.00;99.90;;;;;;5091510;28;20193;-32
2023/01/27 04:46:55;;;;;;;23.60;13.83;;;-1.00;99.90;;;;;;5093433;28;20169;-32
2023/01/27 04:49:21;;;;;;;24.40;13.87;;;-1.00;99.90;;;;;;5081047;28;20591;-32
2023/01/27 04:51:47;;;;;;;27.63;15.10;;;-1.00;99.90;;;;;;5072460;28;20200;-32
2023/01/27 04:54:14;;;;;;;30.50;16.33;;;-1.00;99.90;;;;;;5071600;28;20193;-32
2023/01/27 04:56:43;;;;;;;27.23;15.67;;;-1.00;99.90;;;;;;5072107;28;20185;-32
2023/01/27 04:59:14;;;;;;;26.10;14.90;;;-1.00;99.90;;;;;;5090899;28;20182;-32
2023/01/27 05:01:40;;;;;;;24.07;13.73;;;-1.00;99.90;;;;;;5087509;28;20210;-32
2023/01/27 05:04:06;;;;;;;25.87;15.07;;;-1.00;99.90;;;;;;5086551;28;20291;-33
2023/01/27 05:06:32;;;;;;;27.07;13.43;;;-1.00;99.90;;;;;;5104005;28;20273;-32
2023/01/27 05:09:00;;;;;;;24.13;13.03;;;-1.00;99.90;;;;;;5101192;28;20178;-31
2023/01/27 05:11:25;;;;;;;25.40;14.13;;;-1.00;99.90;;;;;;5104772;28;20188;-32
2023/01/27 05:13:51;;;;;;;24.47;13.47;;;-0.90;99.90;;;;;;5091914;28;20259;-32
2023/01/27 05:16:20;;;;;;;21.80;12.80;;;-0.90;99.90;;;;;;5101469;28;20184;-32
2023/01/27 05:18:48;;;;;;;25.23;14.60;;;-0.90;99.90;;;;;;5082930;28;20231;-31
2023/01/27 05:21:18;;;;;;;21.33;11.97;;;-0.90;99.90;;;;;;5098464;28;20196;-32
2023/01/27 05:23:44;;;;;;;27.53;13.67;;;-0.90;99.90;;;;;;5100068;28;20208;-33
2023/01/27 05:26:13;;;;;;;23.90;12.93;;;-0.90;99.90;;;;;;5099121;28;20268;-33
2023/01/27 05:28:41;;;;;;;24.03;12.63;;;-0.90;99.90;;;;;;5104319;28;20259;-32
2023/01/27 05:31:20;;;;;;;25.13;15.03;;;-0.90;99.90;;;;;;5097158;27;20226;-32
2023/01/27 05:33:49;;;;;;;21.33;12.53;;;-0.90;99.90;;;;;;5093014;28;20188;-32
2023/01/27 05:36:17;;;;;;;22.47;12.53;;;-0.90;99.90;;;;;;5091810;28;20305;-32
2023/01/27 05:38:43;;;;;;;21.03;12.10;;;-0.90;99.90;;;;;;5084557;28;20180;-32
2023/01/27 05:41:10;;;;;;;23.57;13.07;;;-0.90;99.90;;;;;;5102125;28;20192;-32
2023/01/27 05:43:38;;;;;;;24.70;13.77;;;-0.90;99.90;;;;;;5098837;28;20199;-32
2023/01/27 05:46:08;;;;;;;26.13;13.93;;;-0.90;99.90;;;;;;5093386;28;20176;-31
2023/01/27 05:48:46;;;;;;;21.90;12.47;;;-1.00;99.90;;;;;;5091939;28;20189;-33
2023/01/27 05:51:13;;;;;;;23.33;12.70;;;-1.00;99.90;;;;;;5097488;28;20231;-32
2023/01/27 05:53:40;;;;;;;20.53;12.13;;;-0.90;99.90;;;;;;5099086;28;20172;-32
2023/01/27 05:56:09;;;;;;;21.10;11.63;;;-0.90;99.90;;;;;;5096635;28;20273;-32
2023/01/27 05:58:35;;;;;;;23.53;11.73;;;-0.80;99.90;;;;;;5078107;28;20193;-33
2023/01/27 06:01:10;;;;;;;24.30;13.57;;;-0.80;99.90;;;;;;5072018;28;20197;-32
2023/01/27 06:03:36;;;;;;;23.63;13.13;;;-0.80;99.90;;;;;;5094662;28;20237;-32
2023/01/27 06:06:02;;;;;;;22.23;11.53;;;-0.80;99.90;;;;;;5098704;28;20169;-32
2023/01/27 06:08:30;;;;;;;18.37;11.00;;;-0.70;99.90;;;;;;5094270;28;20236;-33
2023/01/27 06:10:58;;;;;;;21.50;11.83;;;-0.70;99.90;;;;;;5102304;28;20196;-32
2023/01/27 06:13:24;;;;;;;23.23;13.10;;;-0.70;99.90;;;;;;5101795;28;20177;-31
2023/01/27 06:15:51;;;;;;;23.20;13.27;;;-0.80;99.90;;;;;;5104514;28;20182;-31
2023/01/27 06:18:18;;;;;;;23.43;14.17;;;-0.80;99.90;;;;;;5084611;28;20207;-30
2023/01/27 06:20:44;;;;;;;30.90;15.40;;;-0.80;99.90;;;;;;5091835;28;20201;-32
2023/01/27 06:23:12;;;;;;;23.73;13.57;;;-0.90;99.90;;;;;;5097273;28;20693;-31
2023/01/27 06:25:40;;;;;;;20.53;12.97;;;-0.90;99.90;;;;;;5072590;28;20208;-32
2023/01/27 06:28:07;;;;;;;24.67;13.63;;;-1.00;99.90;;;;;;5087014;28;20178;-31
2023/01/27 06:30:37;;;;;;;23.27;13.50;;;-1.00;99.90;;;;;;5099734;28;20208;-32
2023/01/27 06:33:04;;;;;;;25.63;13.83;;;-1.00;99.90;;;;;;5085084;28;20188;-32
2023/01/27 06:35:31;;;;;;;24.20;13.73;;;-1.10;99.90;;;;;;5089233;28;20182;-32
2023/01/27 06:37:58;;;;;;;23.70;13.37;;;-1.10;99.90;;;;;;5071597;28;20180;-33
2023/01/27 06:40:28;;;;;;;20.30;13.20;;;-1.10;99.90;;;;;;5078939;28;20176;-32
2023/01/27 06:42:54;;;;;;;23.70;14.23;;;-1.10;99.90;;;;;;5095765;28;20176;-32
2023/01/27 06:45:20;;;;;;;26.13;14.33;;;-1.10;99.90;;;;;;5095749;28;20236;-32
2023/01/27 06:47:54;;;;;;;24.50;14.20;;;-1.10;99.90;;;;;;5071713;28;20177;-33
2023/01/27 06:50:20;;;;;;;25.37;14.20;;;-1.10;99.90;;;;;;5074232;28;20174;-32
2023/01/27 06:52:46;;;;;;;22.17;13.00;;;-1.00;99.90;;;;;;5067117;28;20202;-33
2023/01/27 06:55:12;;;;;;;25.10;14.20;;;-1.00;99.90;;;;;;5075588;28;20196;-33
2023/01/27 06:57:38;;;;;;;22.43;13.23;;;-1.00;99.90;;;;;;5086477;28;20583;-32
2023/01/27 07:00:04;;;;;;;23.13;14.17;;;-1.10;99.90;;;;;;5090527;28;20180;-32
2023/01/27 07:02:30;;;;;;;22.50;13.40;;;-1.10;99.90;;;;;;5085624;28;20228;-32
2023/01/27 07:04:55;;;;;;;26.80;14.70;;;-1.10;99.90;;;;;;5090751;28;20243;-33
2023/01/27 07:07:21;;;;;;;23.93;13.33;;;-1.10;99.90;;;;;;5091671;28;20181;-32
2023/01/27 07:09:47;;;;;;;22.23;13.57;;;-1.10;99.90;;;;;;5091977;28;20182;-33
2023/01/27 07:12:13;;;;;;;22.17;13.50;;;-1.10;99.90;;;;;;5089831;28;20199;-32
2023/01/27 07:14:38;;;;;;;24.07;13.93;;;-1.10;99.90;;;;;;5089953;28;20211;-33
2023/01/27 07:17:04;;;;;;;24.33;14.10;;;-1.10;99.90;;;;;;5090006;28;20212;-33
2023/01/27 07:19:30;;;;;;;24.27;14.27;;;-1.00;99.90;;;;;;5091789;28;20612;-32
2023/01/27 07:21:56;;;;;;;27.87;16.63;;;-1.00;99.90;;;;;;5096655;28;20244;-33
2023/01/27 07:24:22;;;;;;;23.23;14.40;;;-1.00;99.90;;;;;;5105333;28;20191;-32
2023/01/27 07:26:48;;;;;;;26.93;16.03;;;-1.00;99.90;;;;;;5106124;28;20177;-33
2023/01/27 07:29:14;;;;;;;28.63;16.10;;;-0.90;99.90;;;;;;5104338;28;20180;-33
2023/01/27 07:31:40;;;;;;;23.70;14.13;;;-1.00;99.90;;;;;;5104711;28;20196;-32
2023/01/27 07:34:06;;;;;;;26.40;14.93;;;-0.90;99.90;;;;;;5083504;28;20181;-32
2023/01/27 07:36:32;;;;;;;24.43;15.07;;;-0.90;99.90;;;;;;5103497;28;20177;-33
2023/01/27 07:38:57;;;;;;;23.63;14.07;;;-0.90;99.90;;;;;;5109891;28;20197;-31
2023/01/27 07:41:24;;;;;;;25.90;16.37;;;-0.80;99.90;;;;;;5115694;27;20196;-32
2023/01/27 07:43:50;;;;;;;22.80;14.83;;;-0.80;99.90;;;;;;5115466;28;20242;-33
2023/01/27 07:46:17;;;;;;;22.43;13.63;;;-0.80;99.90;;;;;;5112975;28;20197;-32
2023/01/27 07:48:43;;;;;;;19.43;12.97;;;-0.80;99.90;;;;;;5115226;28;20170;-32
2023/01/27 07:51:12;;;;;;;19.20;12.30;;;-0.80;99.90;;;;;;5114330;28;20192;-32
2023/01/27 07:53:39;;;;;;;22.63;13.23;;;-0.80;99.90;;;;;;5115116;28;20177;-32
2023/01/27 07:56:10;;;;;;;27.40;15.60;;;-0.80;99.90;;;;;;5095091;28;20223;-33
2023/01/27 07:58:38;;;;;;;26.63;15.17;;;-0.80;99.90;;;;;;5093491;28;20177;-32
2023/01/27 08:01:06;;;;;;;22.27;13.43;;;-0.80;99.90;;;;;;5093292;28;20253;-32
2023/01/27 08:03:33;;;;;;;22.00;12.93;;;-0.80;99.90;;;;;;5094564;28;20200;-33
2023/01/27 08:06:07;;;;;;;23.73;13.63;;;-0.70;99.90;;;;;;5074697;28;20177;-32
2023/01/27 08:08:33;;;;;;;24.43;13.83;;;-0.70;99.90;;;;;;5085671;28;20229;-32
2023/01/27 08:11:01;;;;;;;21.77;13.57;;;-0.70;99.90;;;;;;5086481;28;20203;-33
2023/01/27 08:13:27;;;;;;;24.87;14.63;;;-0.70;99.90;;;;;;5074114;28;20183;-32
2023/01/27 08:15:59;;;;;;;22.40;12.83;;;-0.60;99.90;;;;;;5074539;28;20238;-32
2023/01/27 08:18:26;;;;;;;21.83;13.30;;;-0.60;99.90;;;;;;5056176;28;20197;-32
2023/01/27 08:20:53;;;;;;;23.43;14.13;;;-0.60;99.90;;;;;;5072265;28;20206;-32
2023/01/27 08:23:21;;;;;;;20.73;13.07;;;-0.70;99.90;;;;;;5092222;28;20179;-32
2023/01/27 08:25:55;;;;;;;23.57;13.80;;;-0.70;99.90;;;;;;5092688;28;20182;-32
2023/01/27 08:28:22;;;;;;;22.83;14.03;;;-0.80;99.90;;;;;;5093327;28;20177;-32
2023/01/27 08:30:51;;;;;;;23.87;14.23;;;-0.80;99.90;;;;;;5091872;28;20249;-31
2023/01/27 08:33:23;;;;;;;25.53;14.07;;;-0.80;99.90;;;;;;5093799;28;20174;-32
2023/01/27 08:35:49;;;;;;;22.73;12.83;;;-0.80;99.90;;;;;;5081230;28;20191;-32
2023/01/27 08:38:17;;;;;;;22.53;12.97;;;-0.80;99.90;;;;;;5073660;28;20179;-32
2023/01/27 08:40:45;;;;;;;21.07;13.07;;;-0.70;99.90;;;;;;5083000;28;20199;-33
2023/01/27 08:43:11;;;;;;;24.13;14.20;;;-0.70;99.90;;;;;;5075542;28;20174;-32
2023/01/27 08:45:38;;;;;;;22.70;12.97;;;-0.70;99.90;;;;;;5072533;28;20185;-32
2023/01/27 08:48:07;;;;;;;23.07;13.60;;;-0.70;99.90;;;;;;5072158;28;20609;-32
2023/01/27 08:50:33;;;;;;;21.43;13.03;;;-0.60;99.90;;;;;;5088596;28;20187;-32
2023/01/27 08:53:00;;;;;;;19.40;11.60;;;-0.60;99.90;;;;;;5092293;28;20171;-32
2023/01/27 08:55:29;;;;;;;19.53;11.50;;;-0.60;99.90;;;;;;5090787;28;20554;-32
2023/01/27 08:57:54;;;;;;;21.97;11.57;;;-0.50;99.90;;;;;;5075019;28;20215;-32
2023/01/27 09:00:21;;;;;;;21.83;12.03;;;-0.50;99.90;;;;;;5086919;28;20178;-32
2023/01/27 09:02:47;;;;;;;23.33;14.40;;;-0.40;99.90;;;;;;5081076;28;20218;-31
2023/01/27 09:05:13;;;;;;;18.53;12.40;;;-0.50;99.90;;;;;;5077894;28;20207;-32
2023/01/27 09:07:40;;;;;;;20.00;11.40;;;-0.50;99.90;;;;;;5093038;28;20240;-32
2023/01/27 09:10:17;;;;;;;18.87;11.63;;;-0.50;99.90;;;;;;5088293;28;20550;-32
2023/01/27 09:12:43;;;;;;;18.67;11.23;;;-0.50;99.90;;;;;;5056376;28;20206;-32
2023/01/27 09:15:13;;;;;;;17.43;10.47;;;-0.50;99.90;;;;;;5055166;28;20183;-32
2023/01/27 09:17:46;;;;;;;18.30;10.97;;;-0.50;99.90;;;;;;5092108;28;20179;-32
2023/01/27 09:20:13;;;;;;;16.57;10.83;;;-0.50;99.90;;;;;;5092258;28;20182;-32
2023/01/27 09:22:40;;;;;;;15.27;10.27;;;-0.40;99.90;;;;;;5091518;28;20202;-32
2023/01/27 09:25:14;;;;;;;14.97;10.27;;;-0.40;99.90;;;;;;5080168;28;20218;-32
2023/01/27 09:27:40;;;;;;;15.93;10.23;;;-0.40;99.90;;;;;;5091161;28;20187;-33
2023/01/27 09:30:08;;;;;;;20.33;11.27;;;-0.40;99.90;;;;;;5088191;28;20169;-33
2023/01/27 09:32:35;;;;;;;16.27;10.10;;;-0.40;99.90;;;;;;5074790;28;20203;-33
2023/01/27 09:35:01;;;;;;;17.83;11.20;;;-0.40;99.90;;;;;;5071280;28;20180;-33
2023/01/27 09:37:29;;;;;;;18.03;11.73;;;-0.40;99.90;;;;;;5071134;28;20179;-33
2023/01/27 09:40:02;;;;;;;18.53;11.77;;;-0.40;99.90;;;;;;5077193;28;20190;-33
2023/01/27 09:42:28;;;;;;;17.57;11.17;;;-0.30;99.90;;;;;;5070721;28;20198;-33
2023/01/27 09:45:02;;;;;;;16.43;10.83;;;-0.40;99.90;;;;;;5071860;28;20213;-33
2023/01/27 09:47:37;;;;;;;14.67;10.03;;;-0.40;99.90;;;;;;5070966;28;20188;-32
2023/01/27 09:50:24;;;;;;;14.90;8.90;;;-0.40;99.90;;;;;;5072530;28;20215;-33
2023/01/27 09:53:11;;;;;;;12.90;7.90;;;-0.50;99.90;;;;;;5070618;28;20180;-32
2023/01/27 09:55:55;;;;;;;10.97;7.67;;;-0.50;99.90;;;;;;5069146;28;20188;-32
2023/01/27 09:58:33;;;;;;;15.30;9.57;;;-0.40;99.90;;;;;;5091425;28;20173;-33
2023/01/27 10:01:17;;;;;;;15.87;10.73;;;-0.50;99.90;;;;;;5090765;28;20200;-31
2023/01/27 10:04:07;;;;;;;16.80;10.70;;;-0.50;99.90;;;;;;5074019;28;20225;-33
2023/01/27 10:07:01;;;;;;;18.30;10.47;;;-0.50;99.90;;;;;;5077096;28;20274;-31
2023/01/27 10:09:51;;;;;;;19.57;11.50;;;-0.50;99.90;;;;;;5076708;28;20204;-31
2023/01/27 10:12:38;;;;;;;18.23;11.73;;;-0.50;99.90;;;;;;5071715;28;20196;-31
2023/01/27 10:15:23;;;;;;;17.73;11.17;;;-0.50;99.90;;;;;;5081643;28;20205;-31
2023/01/27 10:18:08;;;;;;;17.90;11.50;;;-0.50;99.90;;;;;;5008973;23;20253;-90
2023/01/27 10:21:06;;;;;;;23.77;14.30;;;-0.60;99.90;;;;;;5036655;28;20212;-92
2023/01/27 10:23:41;;;;;;;19.03;12.07;;;-0.50;99.90;;;;;;4995224;28;20198;-91
2023/01/27 10:26:21;;;;;;;17.77;11.53;;;-0.50;99.90;;;;;;5012392;28;20174;-92
2023/01/27 10:28:50;;;;;;;18.00;11.53;;;-0.40;99.90;;;;;;4991910;28;20178;-91
2023/01/27 10:31:32;;;;;;;18.30;10.67;;;-0.40;99.90;;;;;;5008609;28;20205;-92
2023/01/27 10:34:08;;;;;;;15.67;10.00;;;-0.30;99.90;;;;;;4998108;28;20188;-91
2023/01/27 10:36:52;;;;;;;17.57;10.67;;;-0.30;99.90;;;;;;4995637;28;20271;-92
2023/01/27 10:39:40;;;;;;;17.50;10.73;;;-0.30;99.90;;;;;;5011752;28;20183;-92
2023/01/27 10:42:26;;;;;;;15.63;9.77;;;-0.30;99.90;;;;;;5011660;28;20173;-93
2023/01/27 10:45:11;;;;;;;14.57;9.57;;;-0.30;99.90;;;;;;4994863;28;20238;-91
2023/01/27 10:48:04;;;;;;;16.93;10.50;;;-0.30;99.90;;;;;;4995335;28;20216;-92
2023/01/27 10:50:50;;;;;;;14.60;9.53;;;-0.30;99.90;;;;;;4994903;28;20730;-92
2023/01/27 10:53:25;;;;;;;16.20;10.30;;;-0.30;99.90;;;;;;4995036;28;20268;-92
2023/01/27 10:55:58;;;;;;;15.47;10.23;;;-0.30;99.90;;;;;;5011237;28;20177;-93
2023/01/27 10:59:00;;;;;;;14.30;9.43;;;-0.40;99.90;;;;;;5011134;28;20176;-92
2023/01/27 11:01:51;;;;;;;16.33;9.57;;;-0.50;99.90;;;;;;4994624;28;20212;-92
2023/01/27 11:04:37;;;;;;;14.13;9.57;;;-0.50;99.90;;;;;;4994626;28;20209;-92
2023/01/27 11:07:06;;;;;;;16.83;11.20;;;-0.50;99.90;;;;;;5011720;28;20207;-92
2023/01/27 11:09:40;;;;;;;16.93;10.60;;;-0.50;99.90;;;;;;5011504;28;20183;-92
2023/01/27 11:12:14;;;;;;;15.87;10.73;;;-0.50;99.90;;;;;;5011282;28;20239;-91
2023/01/27 11:14:49;;;;;;;19.17;11.07;;;-0.40;99.90;;;;;;5011509;28;20200;-91
2023/01/27 11:17:37;;;;;;;18.77;10.73;;;-0.50;99.90;;;;;;5011141;28;20186;-92
2023/01/27 11:20:19;;;;;;;15.83;10.37;;;-0.50;99.90;;;;;;5011426;28;20207;-92
2023/01/27 11:23:03;;;;;;;17.50;11.20;;;-0.40;99.90;;;;;;5008127;28;20180;-93
2023/01/27 11:25:46;;;;;;;15.17;9.87;;;-0.40;99.90;;;;;;5011355;28;20212;-92
2023/01/27 11:28:33;;;;;;;14.77;9.77;;;-0.30;99.90;;;;;;4995181;28;20222;-91
2023/01/27 11:31:24;;;;;;;16.73;10.53;;;-0.20;99.90;;;;;;5011250;28;20204;-92
2023/01/27 11:34:15;;;;;;;16.73;9.80;;;-0.10;99.90;;;;;;4995331;28;20210;-91
2023/01/27 11:36:57;;;;;;;16.37;9.73;;;-0.10;99.90;;;;;;5011907;28;20174;-93
2023/01/27 11:39:24;;;;;;;15.63;9.60;;;-0.20;99.90;;;;;;5011416;28;20180;-93
2023/01/27 11:41:54;;;;;;;16.60;9.83;;;-0.20;99.90;;;;;;4994903;28;20204;-92
2023/01/27 11:44:34;;;;;;;17.00;10.33;;;-0.20;99.90;;;;;;4994016;28;20301;-92
2023/01/27 11:47:05;;;;;;;18.10;10.40;;;-0.10;99.90;;;;;;5011703;28;20270;-92
2023/01/27 11:49:36;;;;;;;19.70;11.07;;;-0.10;99.90;;;;;;5011692;28;20298;-92
2023/01/27 11:52:25;;;;;;;19.07;10.90;;;-0.10;99.90;;;;;;5011333;28;20171;-92
2023/01/27 11:55:54;;;;;;;20.20;11.47;;;0.00;99.90;;;;;;5012636;28;20190;-93
2023/01/27 11:58:25;;;;;;;20.67;12.63;;;-0.10;99.90;;;;;;5009936;28;20190;-92
2023/01/27 12:01:11;;;;;;;21.23;13.10;;;-0.10;99.90;;;;;;4994825;28;20200;-93
2023/01/27 12:04:18;;;;;;;24.03;12.83;;;-0.20;99.90;;;;;;4994975;28;20273;-92
2023/01/27 12:07:16;;;;;;;19.97;11.70;;;-0.20;99.90;;;;;;5005399;28;20182;-92
2023/01/27 12:09:43;;;;;;;22.20;12.57;;;-0.10;99.90;;;;;;4976634;28;20280;-92
2023/01/27 12:12:20;;;;;;;25.57;12.87;;;-0.10;99.90;;;;;;4998669;28;20186;-93
2023/01/27 12:14:56;;;;;;;23.20;12.40;;;-0.10;99.90;;;;;;4998670;28;20187;-93
2023/01/27 12:17:39;;;;;;;23.37;12.93;;;-0.10;99.90;;;;;;5014741;28;20272;-92
2023/01/27 12:20:20;;;;;;;21.87;12.20;;;-0.10;99.90;;;;;;4998299;28;20199;-92
2023/01/27 12:22:58;;;;;;;21.97;11.87;;;-0.10;99.90;;;;;;5015053;28;20170;-92
2023/01/27 12:25:30;;;;;;;38.33;20.63;;;-0.20;99.90;;;;;;5014325;28;20216;-91
2023/01/27 12:28:03;;;;;;;25.60;13.07;;;-0.20;99.90;;;;;;5012162;28;20191;-92
2023/01/27 12:30:33;;;;;;;20.33;11.80;;;-0.20;99.90;;;;;;5014218;28;20223;-92
2023/01/27 12:33:10;;;;;;;24.17;12.23;;;-0.20;99.90;;;;;;4997812;28;20185;-92
2023/01/27 12:35:36;;;;;;;20.53;11.43;;;-0.20;99.90;;;;;;4997623;28;20195;-92
2023/01/27 12:38:16;;;;;;;24.70;12.17;;;-0.20;99.90;;;;;;5014175;28;20185;-93
2023/01/27 12:40:45;;;;;;;18.07;10.53;;;-0.10;99.90;;;;;;5014280;28;20205;-91
2023/01/27 12:43:19;;;;;;;22.37;11.90;;;-0.10;99.90;;;;;;4997911;28;20174;-91
2023/01/27 12:46:03;;;;;;;22.43;11.80;;;-0.10;99.90;;;;;;5014466;28;20193;-91
2023/01/27 12:48:32;;;;;;;23.87;11.90;;;0.00;99.90;;;;;;5014402;28;20200;-91
2023/01/27 12:51:15;;;;;;;21.37;11.47;;;0.00;99.90;;;;;;4997795;28;20213;-91
2023/01/27 13:21:13;;;;;;;18.47;11.13;;;0.00;99.90;;;;;;4982740;23;20590;-41
2023/01/27 13:23:40;;;;;;;20.87;11.60;;;0.00;99.90;;;;;;5033550;28;20238;-42
2023/01/27 13:26:11;;;;;;;21.10;10.77;;;0.00;99.90;;;;;;5056059;28;20188;-40
2023/01/27 13:29:01;;;;;;;20.33;11.13;;;0.10;99.90;;;;;;5036226;28;20187;-43
2023/01/27 13:32:02;;;;;;;19.70;10.13;;;0.10;99.90;;;;;;5053349;28;20170;-41
2023/01/27 13:34:45;;;;;;;19.30;10.10;;;0.00;99.90;;;;;;5053884;28;20175;-42
2023/01/27 13:37:19;;;;;;;20.40;10.57;;;0.00;99.90;;;;;;5037268;28;20223;-41
2023/01/27 13:40:27;;;;;;;22.57;10.97;;;0.00;99.90;;;;;;5071794;28;20190;-42
2023/01/27 13:43:35;;;;;;;19.53;9.93;;;0.10;99.90;;;;;;5053589;28;20194;-41
2023/01/27 13:46:41;;;;;;;20.90;10.97;;;0.10;99.90;;;;;;5050679;28;20302;-42
2023/01/27 13:49:36;;;;;;;24.50;12.47;;;0.10;99.90;;;;;;4962252;28;20190;-40
2023/01/27 13:52:05;;;;;;;20.37;10.97;;;0.10;99.90;;;;;;4970290;28;20209;-39